createdAt,value
2023-02-16T00:01:00.831Z,101665.28
2023-02-16T00:03:27.463Z,101674.34
2023-02-16T00:05:53.843Z,101694.22
2023-02-16T00:08:20.304Z,101687.97
2023-02-16T00:11:06.666Z,101680.91
2023-02-16T00:13:48.416Z,101680.97
2023-02-16T00:16:20.141Z,101676.66
2023-02-16T00:18:46.970Z,101682.81
2023-02-16T00:21:14.323Z,101678.47
2023-02-16T00:23:41.065Z,101680.38
2023-02-16T00:26:20.375Z,101683.03
2023-02-16T00:28:53.122Z,101685.78
2023-02-16T00:31:28.909Z,101674.16
2023-02-16T00:33:55.588Z,101673.44
2023-02-16T00:36:22.052Z,101666.47
2023-02-16T00:38:51.096Z,101672.75
2023-02-16T00:41:41.765Z,101678.28
2023-02-16T00:44:17.780Z,101678.41
2023-02-16T00:46:47.785Z,101685.00
2023-02-16T00:49:21.000Z,101686.03
2023-02-16T00:51:48.291Z,101684.28
2023-02-16T00:54:14.875Z,101685.00
2023-02-16T00:56:45.119Z,101693.09
2023-02-16T00:59:18.192Z,101703.78
2023-02-16T01:01:44.862Z,101701.28
2023-02-16T01:04:22.536Z,101698.53
2023-02-16T01:07:08.111Z,101688.78
2023-02-16T01:09:53.289Z,101689.81
2023-02-16T01:12:21.329Z,101699.47
2023-02-16T01:14:54.778Z,101685.16
2023-02-16T01:17:27.187Z,101696.72
2023-02-16T01:19:53.843Z,101691.50
2023-02-16T01:22:20.347Z,101684.59
2023-02-16T01:24:49.116Z,101681.91
2023-02-16T01:27:15.622Z,101689.94
2023-02-16T01:29:42.161Z,101682.88
2023-02-16T01:32:12.330Z,101688.41
2023-02-16T01:34:39.350Z,101690.34
2023-02-16T01:37:05.831Z,101693.03
2023-02-16T01:39:32.308Z,101696.56
2023-02-16T01:42:47.692Z,101686.84
2023-02-16T01:45:32.832Z,101691.31
2023-02-16T01:48:04.396Z,101684.47
2023-02-16T01:50:45.990Z,101683.47
2023-02-16T01:53:19.720Z,101681.72
2023-02-16T01:55:49.860Z,101676.53
2023-02-16T01:58:31.250Z,101669.34
2023-02-16T02:00:58.784Z,101672.13
2023-02-16T02:03:52.910Z,101688.25
2023-02-16T02:06:34.715Z,101685.56
2023-02-16T02:09:14.260Z,101666.69
2023-02-16T02:11:52.611Z,101673.88
2023-02-16T02:14:35.745Z,101671.25
2023-02-16T02:17:07.278Z,101658.75
2023-02-16T02:19:46.020Z,101662.13
2023-02-16T02:22:58.853Z,101648.59
2023-02-16T02:26:26.689Z,101647.13
2023-02-16T02:28:58.570Z,101648.88
2023-02-16T02:31:41.980Z,101646.44
2023-02-16T02:34:08.332Z,101637.00
2023-02-16T02:37:03.235Z,101646.03
2023-02-16T02:40:01.896Z,101629.66
2023-02-16T02:42:39.652Z,101642.16
2023-02-16T02:45:18.709Z,101642.25
2023-02-16T02:47:47.372Z,101643.09
2023-02-16T02:51:04.931Z,101644.75
2023-02-16T02:53:31.840Z,101648.03
2023-02-16T02:56:20.252Z,101648.03
2023-02-16T02:59:10.602Z,101633.56
2023-02-16T03:01:41.009Z,101631.66
2023-02-16T03:04:11.767Z,101637.72
2023-02-16T03:06:47.085Z,101637.78
2023-02-16T03:09:18.168Z,101625.97
2023-02-16T03:12:05.428Z,101632.19
2023-02-16T03:14:36.427Z,101637.38
2023-02-16T03:17:29.712Z,101636.31
2023-02-16T03:20:17.326Z,101640.66
2023-02-16T03:23:03.835Z,101636.16
2023-02-16T03:25:54.730Z,101632.47
2023-02-16T03:28:46.403Z,101638.50
2023-02-16T03:31:29.812Z,101638.41
2023-02-16T03:33:58.916Z,101633.91
2023-02-16T03:36:29.286Z,101633.75
2023-02-16T03:38:56.985Z,101642.38
2023-02-16T03:41:24.973Z,101634.59
2023-02-16T03:43:51.537Z,101627.25
2023-02-16T03:46:18.526Z,101639.81
2023-02-16T03:48:44.994Z,101648.69
2023-02-16T03:51:11.431Z,101647.75
2023-02-16T03:53:37.905Z,101644.88
2023-02-16T03:56:04.415Z,101639.53
2023-02-16T03:58:30.937Z,101648.53
2023-02-16T04:00:59.785Z,101644.00
2023-02-16T04:03:27.109Z,101639.19
2023-02-16T04:05:56.296Z,101647.94
2023-02-16T04:08:22.726Z,101647.25
2023-02-16T04:10:49.170Z,101656.03
2023-02-16T04:13:17.873Z,101652.59
2023-02-16T04:15:44.265Z,101636.53
2023-02-16T04:18:10.833Z,101638.09
2023-02-16T04:20:37.436Z,101636.16
2023-02-16T04:23:06.752Z,101645.94
2023-02-16T04:25:35.932Z,101645.75
2023-02-16T04:28:02.419Z,101647.50
2023-02-16T04:30:31.121Z,101643.94
2023-02-16T04:32:59.236Z,101653.59
2023-02-16T04:35:26.123Z,101649.47
2023-02-16T04:37:52.653Z,101660.97
2023-02-16T04:40:24.418Z,101659.06
2023-02-16T04:42:50.879Z,101652.75
2023-02-16T04:45:17.427Z,101651.72
2023-02-16T04:47:46.453Z,101641.16
2023-02-16T04:50:13.277Z,101645.13
2023-02-16T04:52:40.389Z,101652.34
2023-02-16T04:55:09.620Z,101649.19
2023-02-16T04:57:39.420Z,101648.06
2023-02-16T05:00:11.710Z,101643.84
2023-02-16T05:02:38.130Z,101635.97
2023-02-16T05:05:06.848Z,101640.41
2023-02-16T05:07:33.501Z,101643.25
2023-02-16T05:09:59.903Z,101643.16
2023-02-16T05:12:44.775Z,101640.22
2023-02-16T05:15:13.540Z,101650.06
2023-02-16T05:17:40.028Z,101650.94
2023-02-16T05:20:06.883Z,101646.44
2023-02-16T05:22:34.457Z,101646.38
2023-02-16T05:25:01.976Z,101640.81
2023-02-16T05:27:30.474Z,101646.38
2023-02-16T05:29:58.080Z,101646.94
2023-02-16T05:32:25.595Z,101650.31
2023-02-16T05:34:54.512Z,101647.75
2023-02-16T05:37:21.005Z,101642.19
2023-02-16T05:39:47.471Z,101640.47
2023-02-16T05:42:14.408Z,101643.69
2023-02-16T05:44:41.015Z,101648.00
2023-02-16T05:47:09.868Z,101641.84
2023-02-16T05:49:38.440Z,101655.16
2023-02-16T05:52:04.935Z,101650.75
2023-02-16T05:54:31.429Z,101660.50
2023-02-16T05:57:00.356Z,101661.28
2023-02-16T05:59:26.858Z,101657.75
2023-02-16T06:01:58.080Z,101661.38
2023-02-16T06:04:24.536Z,101656.91
2023-02-16T06:06:51.045Z,101663.97
2023-02-16T06:09:17.523Z,101661.28
2023-02-16T06:11:44.168Z,101660.06
2023-02-16T06:14:20.993Z,101658.44
2023-02-16T06:16:50.107Z,101659.28
2023-02-16T06:19:18.073Z,101663.81
2023-02-16T06:21:45.267Z,101662.69
2023-02-16T06:24:13.282Z,101664.31
2023-02-16T06:26:39.985Z,101671.75
2023-02-16T06:29:09.507Z,101677.03
2023-02-16T06:31:36.883Z,101673.47
2023-02-16T06:34:05.962Z,101675.97
2023-02-16T06:36:35.288Z,101676.91
2023-02-16T06:39:01.863Z,101679.72
2023-02-16T06:41:40.783Z,101682.38
2023-02-16T06:44:12.437Z,101676.09
2023-02-16T06:46:40.246Z,101682.28
2023-02-16T06:49:07.076Z,101671.56
2023-02-16T06:51:33.983Z,101683.16
2023-02-16T06:54:00.365Z,101682.28
2023-02-16T06:56:26.991Z,101673.28
2023-02-16T06:58:53.394Z,101685.75
2023-02-16T07:01:23.062Z,101696.38
2023-02-16T07:03:51.141Z,101694.56
2023-02-16T07:06:18.380Z,101700.09
2023-02-16T07:08:45.335Z,101693.69
2023-02-16T07:11:12.656Z,101691.72
2023-02-16T07:13:39.720Z,101692.56
2023-02-16T07:16:07.066Z,101695.25
2023-02-16T07:18:34.577Z,101702.06
2023-02-16T07:21:04.142Z,101704.38
2023-02-16T07:23:30.764Z,101706.13
2023-02-16T07:25:57.145Z,101708.81
2023-02-16T07:28:23.833Z,101703.63
2023-02-16T07:30:51.022Z,101703.38
2023-02-16T07:33:22.765Z,101700.56
2023-02-16T07:35:50.403Z,101711.13
2023-02-16T07:38:16.885Z,101711.66
2023-02-16T07:40:43.255Z,101711.53
2023-02-16T07:43:10.524Z,101708.38
2023-02-16T07:45:37.068Z,101706.38
2023-02-16T07:48:08.146Z,101705.41
2023-02-16T07:50:35.795Z,101702.81
2023-02-16T07:53:02.824Z,101698.94
2023-02-16T07:55:31.754Z,101702.03
2023-02-16T07:57:58.110Z,101707.19
2023-02-16T08:00:27.122Z,101698.19
2023-02-16T08:02:53.848Z,101700.69
2023-02-16T08:05:20.425Z,101706.38
2023-02-16T08:07:47.783Z,101698.44
2023-02-16T08:10:14.537Z,101700.94
2023-02-16T08:12:41.204Z,101699.59
2023-02-16T08:15:08.174Z,101708.41
2023-02-16T08:17:35.501Z,101699.03
2023-02-16T08:20:03.647Z,101704.31
2023-02-16T08:22:30.720Z,101708.06
2023-02-16T08:24:57.189Z,101699.16
2023-02-16T08:27:24.770Z,101707.81
2023-02-16T08:29:51.313Z,101706.28
2023-02-16T08:32:17.941Z,101706.28
2023-02-16T08:34:44.377Z,101703.03
2023-02-16T08:37:13.087Z,101699.97
2023-02-16T08:39:40.561Z,101696.00
2023-02-16T08:42:07.134Z,101693.91
2023-02-16T08:44:33.538Z,101703.41
2023-02-16T08:47:01.006Z,101703.91
2023-02-16T08:49:27.698Z,101708.13
2023-02-16T08:51:56.225Z,101702.06
2023-02-16T08:54:30.831Z,101715.88
2023-02-16T08:56:59.043Z,101713.88
2023-02-16T08:59:28.450Z,101712.72
2023-02-16T09:01:55.987Z,101716.06
2023-02-16T09:04:29.100Z,101718.34
2023-02-16T09:06:59.560Z,101712.78
2023-02-16T09:09:27.073Z,101704.88
2023-02-16T09:11:54.358Z,101703.84
2023-02-16T09:14:23.296Z,101700.88
2023-02-16T09:16:49.850Z,101693.84
2023-02-16T09:19:20.387Z,101694.84
2023-02-16T09:21:48.593Z,101702.22
2023-02-16T09:24:15.861Z,101711.50
2023-02-16T09:26:43.002Z,101709.94
2023-02-16T09:29:12.230Z,101708.69
2023-02-16T09:31:41.300Z,101708.59
2023-02-16T09:34:21.284Z,101710.78
2023-02-16T09:36:48.884Z,101707.44
2023-02-16T09:39:17.054Z,101704.69
2023-02-16T09:41:52.728Z,101698.97
2023-02-16T09:44:49.191Z,101697.81
2023-02-16T09:47:24.673Z,101709.88
2023-02-16T09:49:53.806Z,101714.00
2023-02-16T09:52:40.254Z,101702.69
2023-02-16T09:55:22.557Z,101705.03
2023-02-16T09:58:14.821Z,101705.56
2023-02-16T10:00:51.149Z,101709.75
2023-02-16T10:03:34.133Z,101693.66
2023-02-16T10:06:05.558Z,101695.06
2023-02-16T10:08:46.663Z,101686.69
2023-02-16T10:11:38.357Z,101686.97
2023-02-16T10:14:32.679Z,101679.94
2023-02-16T10:17:28.195Z,101679.88
2023-02-16T10:20:06.034Z,101675.09
2023-02-16T10:22:42.392Z,101669.25
2023-02-16T10:25:18.713Z,101661.94
2023-02-16T10:27:54.506Z,101661.50
2023-02-16T10:30:23.391Z,101666.44
2023-02-16T10:33:04.165Z,101662.03
2023-02-16T10:35:47.636Z,101664.13
2023-02-16T10:38:43.013Z,101660.84
2023-02-16T10:41:21.550Z,101670.34
2023-02-16T10:43:56.758Z,101665.66
2023-02-16T10:46:26.743Z,101663.09
2023-02-16T10:48:55.617Z,101658.03
2023-02-16T10:51:28.369Z,101654.44
2023-02-16T10:54:00.303Z,101660.56
2023-02-16T10:56:37.370Z,101659.69
2023-02-16T10:59:18.341Z,101654.44
2023-02-16T11:01:50.890Z,101647.78
2023-02-16T11:04:41.334Z,101656.88
2023-02-16T11:07:11.016Z,101649.00
2023-02-16T11:09:39.986Z,101641.09
2023-02-16T11:12:24.894Z,101634.88
2023-02-16T11:14:54.668Z,101636.25
2023-02-16T11:17:27.910Z,101635.56
2023-02-16T11:20:01.607Z,101626.34
2023-02-16T11:22:28.463Z,101627.69
2023-02-16T11:24:59.821Z,101639.88
2023-02-16T11:27:29.893Z,101623.59
2023-02-16T11:30:22.314Z,101607.59
2023-02-16T11:32:51.384Z,101606.59
2023-02-16T11:35:18.973Z,101596.88
2023-02-16T11:37:46.323Z,101604.59
2023-02-16T11:40:34.597Z,101592.44
2023-02-16T11:43:02.302Z,101595.06
2023-02-16T11:45:32.553Z,101587.31
2023-02-16T11:48:23.503Z,101590.59
2023-02-16T11:51:02.881Z,101575.25
2023-02-16T11:53:35.943Z,101566.91
2023-02-16T11:56:27.217Z,101576.44
2023-02-16T11:59:23.379Z,101571.25
2023-02-16T12:02:27.383Z,101569.56
2023-02-16T12:05:17.411Z,101554.34
2023-02-16T12:08:03.590Z,101547.72
2023-02-16T12:11:01.343Z,101553.41
2023-02-16T12:13:46.323Z,101546.44
2023-02-16T12:16:28.005Z,101557.53
2023-02-16T12:19:06.834Z,101541.66
2023-02-16T12:21:38.986Z,101548.75
2023-02-16T12:24:29.253Z,101553.28
2023-02-16T12:27:01.536Z,101558.25
2023-02-16T12:29:54.475Z,101550.28
2023-02-16T12:32:37.358Z,101542.44
2023-02-16T12:35:21.837Z,101545.09
2023-02-16T12:38:01.751Z,101531.69
2023-02-16T12:40:43.073Z,101542.88
2023-02-16T12:43:12.136Z,101554.69
2023-02-16T12:45:43.481Z,101543.72
2023-02-16T12:48:40.235Z,101556.56
2023-02-16T12:51:12.815Z,101540.44
2023-02-16T12:53:49.273Z,101568.13
2023-02-16T12:56:26.010Z,101541.81
2023-02-16T12:59:03.883Z,101516.56
2023-02-16T13:01:37.492Z,101545.44
2023-02-16T13:04:24.314Z,101535.53
2023-02-16T13:07:01.415Z,101558.44
2023-02-16T13:09:53.365Z,101545.13
2023-02-16T13:12:37.019Z,101577.41
2023-02-16T13:15:13.139Z,101572.31
2023-02-16T13:17:52.860Z,101535.00
2023-02-16T13:20:21.914Z,101558.28
2023-02-16T13:22:51.235Z,101527.81
2023-02-16T13:25:37.290Z,101527.16
2023-02-16T13:28:33.307Z,101541.50
2023-02-16T13:31:15.566Z,101535.00
2023-02-16T13:33:55.261Z,101526.59
2023-02-16T13:36:30.912Z,101578.06
2023-02-16T13:39:27.850Z,101555.97
2023-02-16T13:42:09.270Z,101545.91
2023-02-16T13:44:42.388Z,101539.44
2023-02-16T13:47:16.688Z,101531.56
2023-02-16T13:49:43.607Z,101519.97
2023-02-16T13:52:36.982Z,101550.56
2023-02-16T13:55:20.984Z,101533.63
2023-02-16T13:57:51.780Z,101496.00
2023-02-16T14:00:39.011Z,101539.09
2023-02-16T14:03:31.982Z,101510.16
2023-02-16T14:06:26.943Z,101513.16
2023-02-16T14:09:12.108Z,101500.31
2023-02-16T14:11:53.617Z,101527.69
2023-02-16T14:14:31.291Z,101518.47
2023-02-16T14:17:19.822Z,101526.66
2023-02-16T14:19:58.355Z,101520.00
2023-02-16T14:22:31.319Z,101511.25
2023-02-16T14:25:01.189Z,101521.56
2023-02-16T14:27:52.793Z,101508.75
2023-02-16T14:30:46.732Z,101499.84
2023-02-16T14:33:15.811Z,101485.38
2023-02-16T14:36:02.463Z,101460.41
2023-02-16T14:38:45.899Z,101449.47
2023-02-16T14:41:33.864Z,101443.34
2023-02-16T14:44:06.220Z,101436.81
2023-02-16T14:47:04.384Z,101479.41
2023-02-16T14:49:49.469Z,101460.28
2023-02-16T14:52:48.960Z,101448.13
2023-02-16T14:55:52.383Z,101474.81
2023-02-16T14:58:25.888Z,101463.03
2023-02-16T15:01:18.775Z,101440.00
2023-02-16T15:03:48.849Z,101453.84
2023-02-16T15:06:42.766Z,101446.50
2023-02-16T15:09:23.410Z,101445.47
2023-02-16T15:12:10.975Z,101408.06
2023-02-16T15:14:48.795Z,101402.81
2023-02-16T15:17:35.661Z,101439.34
2023-02-16T15:20:10.917Z,101431.84
2023-02-16T15:22:44.501Z,101430.47
2023-02-16T15:25:23.108Z,101414.75
2023-02-16T15:28:01.552Z,101413.22
2023-02-16T15:30:33.253Z,101396.63
2023-02-16T15:33:06.673Z,101389.44
2023-02-16T15:35:38.151Z,101402.25
2023-02-16T15:38:13.346Z,101387.41
2023-02-16T15:40:42.262Z,101418.97
2023-02-16T15:43:46.336Z,101402.25
2023-02-16T15:46:16.028Z,101386.19
2023-02-16T15:48:42.863Z,101392.66
2023-02-16T15:51:14.807Z,101384.28
2023-02-16T15:53:53.158Z,101373.34
2023-02-16T15:56:50.224Z,101369.59
2023-02-16T15:59:22.695Z,101364.28
2023-02-16T16:02:13.359Z,101383.06
2023-02-16T16:04:44.497Z,101390.09
2023-02-16T16:07:17.565Z,101394.38
2023-02-16T16:09:45.732Z,101382.56
2023-02-16T16:12:16.066Z,101381.03
2023-02-16T16:15:02.186Z,101372.47
2023-02-16T16:17:37.842Z,101361.53
2023-02-16T16:20:36.829Z,101370.97
2023-02-16T16:23:24.773Z,101355.88
2023-02-16T16:25:52.120Z,101360.69
2023-02-16T16:28:24.787Z,101367.50
2023-02-16T16:31:07.014Z,101373.47
2023-02-16T16:33:51.653Z,101361.31
2023-02-16T16:36:18.305Z,101367.31
2023-02-16T16:38:46.061Z,101355.50
2023-02-16T16:41:27.466Z,101366.44
2023-02-16T16:43:59.685Z,101377.69
2023-02-16T16:46:26.946Z,101370.84
2023-02-16T16:49:06.219Z,101378.31
2023-02-16T16:51:43.193Z,101377.94
2023-02-16T16:54:35.558Z,101383.41
2023-02-16T16:57:15.055Z,101381.81
2023-02-16T16:59:44.076Z,101381.78
2023-02-16T17:02:11.259Z,101386.22
2023-02-16T17:04:37.697Z,101368.63
2023-02-16T17:07:04.129Z,101384.97
2023-02-16T17:09:30.580Z,101387.31
2023-02-16T17:11:57.992Z,101396.16
2023-02-16T17:14:27.035Z,101399.09
2023-02-16T17:16:55.035Z,101393.44
2023-02-16T17:19:23.062Z,101384.69
2023-02-16T17:21:49.623Z,101390.75
2023-02-16T17:24:16.367Z,101390.41
2023-02-16T17:26:43.610Z,101390.50
2023-02-16T17:29:12.616Z,101390.28
2023-02-16T17:31:39.125Z,101403.69
2023-02-16T17:34:05.626Z,101390.22
2023-02-16T17:36:35.006Z,101401.44
2023-02-16T17:39:04.221Z,101394.75
2023-02-16T17:41:30.706Z,101396.09
2023-02-16T17:43:57.091Z,101398.44
2023-02-16T17:46:24.741Z,101398.44
2023-02-16T17:48:54.990Z,101390.19
2023-02-16T17:51:23.968Z,101396.41
2023-02-16T17:53:50.794Z,101391.44
2023-02-16T17:56:20.128Z,101389.03
2023-02-16T17:58:46.623Z,101390.03
2023-02-16T18:01:19.855Z,101385.06
2023-02-16T18:03:46.656Z,101402.88
2023-02-16T18:06:15.804Z,101391.44
2023-02-16T18:08:42.922Z,101399.06
2023-02-16T18:11:09.432Z,101412.25
2023-02-16T18:13:36.270Z,101409.72
2023-02-16T18:16:07.244Z,101410.16
2023-02-16T18:18:36.692Z,101411.16
2023-02-16T18:21:03.533Z,101409.75
2023-02-16T18:23:35.531Z,101401.75
2023-02-16T18:26:02.379Z,101402.03
2023-02-16T18:28:31.344Z,101402.34
2023-02-16T18:30:58.894Z,101394.38
2023-02-16T18:33:25.846Z,101401.66
2023-02-16T18:35:57.080Z,101398.09
2023-02-16T18:38:25.968Z,101400.09
2023-02-16T18:40:54.222Z,101403.13
2023-02-16T18:43:22.030Z,101403.13
2023-02-16T18:45:49.064Z,101399.72
2023-02-16T18:48:15.561Z,101393.97
2023-02-16T18:50:42.111Z,101397.53
2023-02-16T18:53:13.237Z,101402.75
2023-02-16T18:55:42.409Z,101389.59
2023-02-16T18:58:13.133Z,101388.72
2023-02-16T19:00:39.995Z,101392.63
2023-02-16T19:03:06.480Z,101395.34
2023-02-16T19:05:35.479Z,101385.00
2023-02-16T19:08:01.909Z,101379.25
2023-02-16T19:10:28.578Z,101388.66
2023-02-16T19:12:54.946Z,101394.84
2023-02-16T19:15:21.536Z,101396.16
2023-02-16T19:17:48.074Z,101394.47
2023-02-16T19:20:18.201Z,101390.28
2023-02-16T19:22:48.689Z,101391.56
2023-02-16T19:25:15.641Z,101391.88
2023-02-16T19:27:43.266Z,101405.75
2023-02-16T19:30:11.298Z,101393.56
2023-02-16T19:32:40.960Z,101397.84
2023-02-16T19:35:12.185Z,101402.44
2023-02-16T19:37:39.143Z,101410.91
2023-02-16T19:40:06.806Z,101407.00
2023-02-16T19:42:33.385Z,101410.06
2023-02-16T19:45:05.382Z,101411.03
2023-02-16T19:47:31.867Z,101400.22
2023-02-16T19:50:00.711Z,101410.56
2023-02-16T19:52:27.271Z,101411.38
2023-02-16T19:54:53.930Z,101417.38
2023-02-16T19:57:22.740Z,101415.41
2023-02-16T19:59:49.303Z,101416.00
2023-02-16T20:02:15.768Z,101417.75
2023-02-16T20:04:43.769Z,101420.56
2023-02-16T20:07:10.211Z,101420.28
2023-02-16T20:09:37.336Z,101428.09
2023-02-16T20:12:04.944Z,101431.44
2023-02-16T20:14:36.910Z,101433.44
2023-02-16T20:17:06.206Z,101438.56
2023-02-16T20:19:32.564Z,101437.56
2023-02-16T20:21:59.009Z,101428.84
2023-02-16T20:24:25.568Z,101429.59
2023-02-16T20:26:52.237Z,101430.28
2023-02-16T20:29:20.580Z,101430.13
2023-02-16T20:31:49.563Z,101418.53
2023-02-16T20:34:16.292Z,101413.81
2023-02-16T20:36:42.947Z,101411.69
2023-02-16T20:39:11.756Z,101407.66
2023-02-16T20:41:38.372Z,101408.97
2023-02-16T20:44:05.453Z,101414.81
2023-02-16T20:46:34.656Z,101414.28
2023-02-16T20:49:01.149Z,101404.81
2023-02-16T20:51:27.867Z,101410.63
2023-02-16T20:53:54.244Z,101411.09
2023-02-16T20:56:27.228Z,101403.94
2023-02-16T20:58:55.507Z,101407.53
2023-02-16T21:01:29.102Z,101407.03
2023-02-16T21:03:57.214Z,101401.34
2023-02-16T21:06:24.645Z,101402.88
2023-02-16T21:08:51.443Z,101406.03
2023-02-16T21:11:17.982Z,101404.44
2023-02-16T21:13:49.292Z,101397.44
2023-02-16T21:16:15.970Z,101395.41
2023-02-16T21:18:44.932Z,101397.19
2023-02-16T21:21:15.687Z,101389.41
2023-02-16T21:23:46.853Z,101393.00
2023-02-16T21:26:13.416Z,101393.72
2023-02-16T21:28:39.889Z,101392.25
2023-02-16T21:31:15.638Z,101376.00
2023-02-16T21:33:42.341Z,101378.72
2023-02-16T21:36:15.108Z,101383.28
2023-02-16T21:38:42.059Z,101379.84
2023-02-16T21:41:25.426Z,101384.28
2023-02-16T21:44:02.547Z,101369.69
2023-02-16T21:46:31.914Z,101373.59
2023-02-16T21:49:02.049Z,101375.59
2023-02-16T21:51:31.324Z,101371.56
2023-02-16T21:54:03.406Z,101378.16
2023-02-16T21:56:35.574Z,101370.69
2023-02-16T21:59:03.438Z,101365.72
2023-02-16T22:01:32.471Z,101368.28
2023-02-16T22:04:01.787Z,101369.47
2023-02-16T22:06:40.643Z,101369.47
2023-02-16T22:09:11.169Z,101369.59
2023-02-16T22:11:38.120Z,101369.28
2023-02-16T22:14:04.793Z,101357.72
2023-02-16T22:16:32.455Z,101366.88
2023-02-16T22:19:00.830Z,101358.91
2023-02-16T22:21:28.708Z,101355.59
2023-02-16T22:24:00.955Z,101356.31
2023-02-16T22:26:32.502Z,101350.34
2023-02-16T22:28:59.505Z,101342.41
2023-02-16T22:31:27.560Z,101346.53
2023-02-16T22:33:58.780Z,101352.97
2023-02-16T22:36:25.731Z,101344.69
2023-02-16T22:38:53.424Z,101345.16
2023-02-16T22:41:23.082Z,101352.00
2023-02-16T22:43:54.491Z,101345.88
2023-02-16T22:46:22.043Z,101356.44
2023-02-16T22:48:48.827Z,101364.50
2023-02-16T22:51:16.616Z,101351.94
2023-02-16T22:53:45.885Z,101351.94
2023-02-16T22:56:15.366Z,101358.78
2023-02-16T22:58:43.067Z,101361.19
2023-02-16T23:01:19.073Z,101363.19
2023-02-16T23:03:49.877Z,101351.63
2023-02-16T23:06:37.206Z,101356.28
2023-02-16T23:09:07.667Z,101355.97
2023-02-16T23:11:36.000Z,101369.25
2023-02-16T23:14:02.706Z,101359.25
2023-02-16T23:16:29.434Z,101367.16
2023-02-16T23:19:01.049Z,101368.03
2023-02-16T23:21:30.734Z,101358.78
2023-02-16T23:23:58.546Z,101361.66
2023-02-16T23:26:29.681Z,101370.06
2023-02-16T23:28:58.638Z,101363.22
2023-02-16T23:31:25.485Z,101349.06
2023-02-16T23:33:59.427Z,101360.00
2023-02-16T23:36:27.294Z,101352.16
2023-02-16T23:38:53.853Z,101352.34
2023-02-16T23:41:20.229Z,101357.47
2023-02-16T23:43:49.301Z,101341.44
2023-02-16T23:46:18.469Z,101348.28
2023-02-16T23:48:45.038Z,101352.00
2023-02-16T23:51:12.229Z,101342.44
2023-02-16T23:53:38.686Z,101352.56
2023-02-16T23:56:14.402Z,101345.16
2023-02-16T23:58:42.261Z,101345.94
